UAE7843 VIDP-OMDB
Flight info
| Callsign | UAE7843 |
|---|---|
| Flight time | 3h 20m |
| Altitude | 40000 |
| Route | SURAM6A SURAM G333 MERUN G452 RK G214 BIVIN R462 VUSET A454 PASOV B540 KUPMA/N0463F240 B540 MIVEK P574 IMPED |
| Aircraft | A359/H-SDE2E3GHIJ3J4J5LM1ORWXY/LB1D1 |
Departure
| Time | 2026-04-23 12:41 |
|---|---|
| Airport | Indira Gandhi International Airport (VIDP) |
Arrival
| Time | 2026-04-23 16:02 |
|---|---|
| Airport | Dubai International Airport (OMDB) |
| Time | Latitude | Longitude | Altitude | Speed | Heading |
|---|---|---|---|---|---|
| 2026-04-23 12:00 | 28.55876 | 77.08245 | 786 ft | 0 kts | 59° |
| 2026-04-23 12:20 | 28.55874 | 77.08243 | 786 ft | 2 kts | 59° |
| 2026-04-23 12:20 | 28.55866 | 77.08227 | 786 ft | 2 kts | 59° |
| 2026-04-23 12:20 | 28.55859 | 77.08212 | 786 ft | 2 kts | 59° |
| 2026-04-23 12:21 | 28.55851 | 77.08199 | 786 ft | 2 kts | 59° |
| 2026-04-23 12:21 | 28.55842 | 77.08185 | 786 ft | 2 kts | 36° |
| 2026-04-23 12:21 | 28.55829 | 77.08177 | 786 ft | 2 kts | 15° |
| 2026-04-23 12:21 | 28.55815 | 77.08174 | 786 ft | 2 kts | 9° |
| 2026-04-23 12:22 | 28.55799 | 77.08171 | 786 ft | 2 kts | 12° |
| 2026-04-23 12:22 | 28.55790 | 77.08168 | 786 ft | 0 kts | 12° |
| 2026-04-23 12:24 | 28.55795 | 77.08170 | 786 ft | 1 kts | 11° |
| 2026-04-23 12:24 | 28.55806 | 77.08172 | 786 ft | 3 kts | 7° |
| 2026-04-23 12:24 | 28.55854 | 77.08155 | 786 ft | 8 kts | 332° |
| 2026-04-23 12:24 | 28.55912 | 77.08117 | 786 ft | 10 kts | 330° |
| 2026-04-23 12:25 | 28.55978 | 77.08075 | 786 ft | 11 kts | 328° |
| 2026-04-23 12:25 | 28.56011 | 77.08009 | 786 ft | 9 kts | 249° |
| 2026-04-23 12:25 | 28.55947 | 77.07970 | 786 ft | 11 kts | 199° |
| 2026-04-23 12:25 | 28.55867 | 77.07941 | 786 ft | 12 kts | 196° |
| 2026-04-23 12:26 | 28.55779 | 77.07914 | 786 ft | 13 kts | 194° |
| 2026-04-23 12:26 | 28.55681 | 77.07886 | 786 ft | 15 kts | 195° |
| 2026-04-23 12:26 | 28.55574 | 77.07852 | 786 ft | 16 kts | 195° |
| 2026-04-23 12:26 | 28.55460 | 77.07822 | 786 ft | 17 kts | 193° |
| 2026-04-23 12:27 | 28.55380 | 77.07800 | 786 ft | 17 kts | 197° |
| 2026-04-23 12:27 | 28.55214 | 77.07748 | 786 ft | 19 kts | 195° |
| 2026-04-23 12:27 | 28.55083 | 77.07715 | 786 ft | 18 kts | 177° |
| 2026-04-23 12:27 | 28.55045 | 77.07752 | 786 ft | 3 kts | 73° |
| 2026-04-23 12:28 | 28.55047 | 77.07764 | 786 ft | 2 kts | 89° |
| 2026-04-23 12:28 | 28.55040 | 77.07793 | 786 ft | 5 kts | 106° |
| 2026-04-23 12:28 | 28.55020 | 77.07867 | 786 ft | 9 kts | 106° |
| 2026-04-23 12:28 | 28.54999 | 77.07948 | 786 ft | 12 kts | 106° |
| 2026-04-23 12:29 | 28.54974 | 77.08050 | 786 ft | 14 kts | 103° |
| 2026-04-23 12:29 | 28.54946 | 77.08170 | 786 ft | 16 kts | 104° |
| 2026-04-23 12:29 | 28.54912 | 77.08308 | 786 ft | 19 kts | 105° |
| 2026-04-23 12:29 | 28.54877 | 77.08464 | 786 ft | 21 kts | 105° |
| 2026-04-23 12:30 | 28.54837 | 77.08640 | 786 ft | 23 kts | 103° |
| 2026-04-23 12:30 | 28.54794 | 77.08831 | 786 ft | 25 kts | 105° |
| 2026-04-23 12:30 | 28.54745 | 77.09028 | 786 ft | 26 kts | 103° |
| 2026-04-23 12:30 | 28.54699 | 77.09232 | 786 ft | 27 kts | 105° |
| 2026-04-23 12:31 | 28.54666 | 77.09373 | 786 ft | 27 kts | 104° |
| 2026-04-23 12:31 | 28.54600 | 77.09658 | 786 ft | 28 kts | 104° |
| 2026-04-23 12:31 | 28.54549 | 77.09881 | 786 ft | 29 kts | 104° |
| 2026-04-23 12:31 | 28.54498 | 77.10106 | 786 ft | 30 kts | 106° |
| 2026-04-23 12:32 | 28.54445 | 77.10339 | 786 ft | 29 kts | 104° |
| 2026-04-23 12:32 | 28.54426 | 77.10422 | 786 ft | 2 kts | 104° |
| 2026-04-23 12:32 | 28.54421 | 77.10444 | 786 ft | 3 kts | 105° |
| 2026-04-23 12:32 | 28.54414 | 77.10474 | 786 ft | 4 kts | 105° |
| 2026-04-23 12:33 | 28.54404 | 77.10514 | 786 ft | 5 kts | 105° |
| 2026-04-23 12:33 | 28.54392 | 77.10563 | 786 ft | 6 kts | 105° |
| 2026-04-23 12:33 | 28.54379 | 77.10619 | 786 ft | 8 kts | 105° |
| 2026-04-23 12:33 | 28.54364 | 77.10685 | 786 ft | 9 kts | 103° |
| 2026-04-23 12:34 | 28.54349 | 77.10761 | 786 ft | 10 kts | 102° |
| 2026-04-23 12:34 | 28.54330 | 77.10841 | 786 ft | 11 kts | 106° |
| 2026-04-23 12:34 | 28.54306 | 77.10929 | 786 ft | 12 kts | 108° |
| 2026-04-23 12:34 | 28.54287 | 77.11021 | 786 ft | 6 kts | 102° |
| 2026-04-23 12:35 | 28.54281 | 77.11056 | 786 ft | 5 kts | 99° |
| 2026-04-23 12:35 | 28.54271 | 77.11074 | 786 ft | 2 kts | 161° |
| 2026-04-23 12:35 | 28.54245 | 77.11071 | 786 ft | 3 kts | 194° |
| 2026-04-23 12:35 | 28.54229 | 77.11066 | 786 ft | 0 kts | 194° |
| 2026-04-23 12:38 | 28.54226 | 77.11065 | 786 ft | 1 kts | 194° |
| 2026-04-23 12:38 | 28.54203 | 77.11059 | 786 ft | 5 kts | 194° |
| 2026-04-23 12:39 | 28.54154 | 77.11044 | 786 ft | 9 kts | 194° |
| 2026-04-23 12:39 | 28.54117 | 77.10999 | 786 ft | 8 kts | 276° |
| 2026-04-23 12:39 | 28.54120 | 77.10989 | 786 ft | 0 kts | 289° |
| 2026-04-23 12:39 | 28.54120 | 77.10986 | 786 ft | 0 kts | 285° |
| 2026-04-23 12:40 | 28.54122 | 77.10980 | 786 ft | 7 kts | 285° |
| 2026-04-23 12:40 | 28.54200 | 77.10618 | 787 ft | 85 kts | 285° |
| 2026-04-23 12:41 | 28.54393 | 77.09709 | 787 ft | 149 kts | 283° |
| 2026-04-23 12:41 | 28.54688 | 77.08392 | 1032 ft | 181 kts | 284° |
| 2026-04-23 12:41 | 28.54986 | 77.07104 | 1981 ft | 166 kts | 285° |
| 2026-04-23 12:41 | 28.55233 | 77.05944 | 2912 ft | 148 kts | 284° |
| 2026-04-23 12:42 | 28.55469 | 77.04784 | 3454 ft | 157 kts | 284° |
| 2026-04-23 12:42 | 28.55636 | 77.03961 | 3775 ft | 167 kts | 284° |
| 2026-04-23 12:42 | 28.56354 | 77.02312 | 4420 ft | 187 kts | 314° |
| 2026-04-23 12:42 | 28.57212 | 77.01141 | 4867 ft | 207 kts | 295° |
| 2026-04-23 12:43 | 28.57408 | 76.99474 | 5305 ft | 223 kts | 259° |
| 2026-04-23 12:43 | 28.56713 | 76.97850 | 5772 ft | 241 kts | 229° |
| 2026-04-23 12:43 | 28.55488 | 76.96435 | 6248 ft | 259 kts | 230° |
| 2026-04-23 12:43 | 28.54728 | 76.95368 | 6554 ft | 270 kts | 236° |
| 2026-04-23 12:44 | 28.53700 | 76.93487 | 7020 ft | 288 kts | 243° |
| 2026-04-23 12:44 | 28.52494 | 76.90672 | 7637 ft | 312 kts | 247° |
| 2026-04-23 12:44 | 28.51898 | 76.89113 | 7949 ft | 324 kts | 250° |
| 2026-04-23 12:44 | 28.51454 | 76.85693 | 8541 ft | 341 kts | 278° |
| 2026-04-23 12:45 | 28.51978 | 76.83067 | 9062 ft | 349 kts | 285° |
| 2026-04-23 12:45 | 28.52600 | 76.80363 | 9781 ft | 352 kts | 285° |
| 2026-04-23 12:45 | 28.53004 | 76.78584 | 10247 ft | 355 kts | 285° |
| 2026-04-23 12:45 | 28.53808 | 76.74970 | 11191 ft | 358 kts | 285° |
| 2026-04-23 12:46 | 28.54408 | 76.72227 | 11904 ft | 361 kts | 285° |
| 2026-04-23 12:46 | 28.55034 | 76.69474 | 12608 ft | 363 kts | 286° |
| 2026-04-23 12:46 | 28.55490 | 76.67629 | 13094 ft | 364 kts | 287° |
| 2026-04-23 12:46 | 28.56417 | 76.63951 | 14052 ft | 365 kts | 287° |
| 2026-04-23 12:47 | 28.57115 | 76.61179 | 14790 ft | 365 kts | 287° |
| 2026-04-23 12:47 | 28.57804 | 76.58426 | 15497 ft | 367 kts | 286° |
| 2026-04-23 12:47 | 28.58510 | 76.55590 | 16110 ft | 373 kts | 286° |
| 2026-04-23 12:47 | 28.59218 | 76.52738 | 16723 ft | 379 kts | 286° |
| 2026-04-23 12:48 | 28.59928 | 76.49872 | 17336 ft | 385 kts | 286° |
| 2026-04-23 12:48 | 28.60656 | 76.46927 | 17967 ft | 389 kts | 286° |
| 2026-04-23 12:48 | 28.61394 | 76.43938 | 18610 ft | 394 kts | 286° |
| 2026-04-23 12:48 | 28.62130 | 76.40950 | 19250 ft | 398 kts | 286° |
| 2026-04-23 12:49 | 28.62879 | 76.37910 | 19896 ft | 401 kts | 286° |
| 2026-04-23 12:49 | 28.63630 | 76.34858 | 20548 ft | 404 kts | 285° |
| 2026-04-23 12:49 | 28.64382 | 76.31789 | 21204 ft | 406 kts | 285° |
| 2026-04-23 12:49 | 28.65139 | 76.28690 | 21866 ft | 408 kts | 285° |
| 2026-04-23 12:50 | 28.65904 | 76.25561 | 22541 ft | 410 kts | 285° |
| 2026-04-23 12:50 | 28.66411 | 76.23490 | 22976 ft | 411 kts | 285° |
| 2026-04-23 12:50 | 28.67180 | 76.20340 | 23500 ft | 416 kts | 285° |
| 2026-04-23 12:50 | 28.68211 | 76.16119 | 24209 ft | 420 kts | 285° |
| 2026-04-23 12:51 | 28.68988 | 76.12939 | 24709 ft | 423 kts | 285° |
| 2026-04-23 12:51 | 28.69520 | 76.10758 | 25055 ft | 425 kts | 285° |
| 2026-04-23 12:51 | 28.70568 | 76.06457 | 25733 ft | 427 kts | 285° |
| 2026-04-23 12:51 | 28.71360 | 76.03207 | 26248 ft | 429 kts | 285° |
| 2026-04-23 12:52 | 28.72151 | 75.99954 | 26753 ft | 429 kts | 285° |
| 2026-04-23 12:52 | 28.72951 | 75.96655 | 27265 ft | 430 kts | 285° |
| 2026-04-23 12:52 | 28.73741 | 75.93386 | 27777 ft | 430 kts | 283° |
| 2026-04-23 12:52 | 28.74331 | 75.90041 | 28293 ft | 430 kts | 278° |
| 2026-04-23 12:53 | 28.74595 | 75.86700 | 28796 ft | 429 kts | 272° |
| 2026-04-23 12:53 | 28.74545 | 75.83321 | 29308 ft | 428 kts | 266° |
| 2026-04-23 12:53 | 28.74282 | 75.79928 | 29829 ft | 427 kts | 265° |
| 2026-04-23 12:53 | 28.73987 | 75.76586 | 30349 ft | 425 kts | 264° |
| 2026-04-23 12:54 | 28.73691 | 75.73280 | 30856 ft | 423 kts | 265° |
| 2026-04-23 12:54 | 28.73391 | 75.69939 | 31380 ft | 421 kts | 265° |
| 2026-04-23 12:54 | 28.73100 | 75.66671 | 31909 ft | 418 kts | 264° |
| 2026-04-23 12:54 | 28.72808 | 75.63377 | 32427 ft | 415 kts | 265° |
| 2026-04-23 12:55 | 28.72520 | 75.60141 | 32954 ft | 412 kts | 264° |
| 2026-04-23 12:55 | 28.72233 | 75.56905 | 33481 ft | 408 kts | 264° |
| 2026-04-23 12:55 | 28.72044 | 75.54775 | 33841 ft | 405 kts | 264° |
| 2026-04-23 12:55 | 28.71672 | 75.50592 | 34581 ft | 399 kts | 264° |
| 2026-04-23 12:56 | 28.71486 | 75.48514 | 34946 ft | 395 kts | 264° |
| 2026-04-23 12:56 | 28.71119 | 75.44411 | 35698 ft | 387 kts | 264° |
| 2026-04-23 12:56 | 28.70852 | 75.41418 | 36245 ft | 380 kts | 264° |
| 2026-04-23 12:56 | 28.70584 | 75.38437 | 36800 ft | 373 kts | 264° |
| 2026-04-23 12:57 | 28.70324 | 75.35541 | 37372 ft | 364 kts | 264° |
| 2026-04-23 12:57 | 28.70070 | 75.32728 | 37920 ft | 355 kts | 264° |
| 2026-04-23 12:57 | 28.69819 | 75.29934 | 38079 ft | 357 kts | 264° |
| 2026-04-23 12:57 | 28.69566 | 75.27142 | 38194 ft | 359 kts | 264° |
| 2026-04-23 12:58 | 28.69050 | 75.21464 | 38378 ft | 363 kts | 264° |
| 2026-04-23 12:58 | 28.68792 | 75.18623 | 38536 ft | 364 kts | 264° |
| 2026-04-23 12:58 | 28.68531 | 75.15778 | 39006 ft | 356 kts | 264° |
| 2026-04-23 12:59 | 28.68013 | 75.10141 | 39127 ft | 361 kts | 264° |
| 2026-04-23 12:59 | 28.67488 | 75.04460 | 39211 ft | 365 kts | 264° |
| 2026-04-23 13:00 | 28.66954 | 74.98704 | 39307 ft | 370 kts | 264° |
| 2026-04-23 13:00 | 28.66683 | 74.95791 | 39511 ft | 366 kts | 264° |
| 2026-04-23 13:00 | 28.66414 | 74.92918 | 39660 ft | 366 kts | 264° |
| 2026-04-23 13:01 | 28.65872 | 74.87133 | 39706 ft | 371 kts | 264° |
| 2026-04-23 13:01 | 28.65323 | 74.81286 | 39732 ft | 376 kts | 264° |
| 2026-04-23 13:02 | 28.64760 | 74.75343 | 39736 ft | 382 kts | 264° |
| 2026-04-23 13:02 | 28.64187 | 74.69308 | 39751 ft | 388 kts | 264° |
| 2026-04-23 13:03 | 28.63601 | 74.63160 | 39727 ft | 395 kts | 264° |
| 2026-04-23 13:03 | 28.63001 | 74.56915 | 39733 ft | 401 kts | 264° |
| 2026-04-23 13:04 | 28.62391 | 74.50584 | 39751 ft | 407 kts | 264° |
| 2026-04-23 13:04 | 28.61771 | 74.44174 | 39737 ft | 413 kts | 264° |
| 2026-04-23 13:05 | 28.61135 | 74.37643 | 39737 ft | 419 kts | 264° |
| 2026-04-23 13:05 | 28.60486 | 74.30994 | 39726 ft | 425 kts | 263° |
| 2026-04-23 13:06 | 28.59493 | 74.20885 | 39729 ft | 435 kts | 263° |
| 2026-04-23 13:07 | 28.58813 | 74.14025 | 39732 ft | 440 kts | 263° |
| 2026-04-23 13:07 | 28.58124 | 74.07101 | 39744 ft | 446 kts | 263° |
| 2026-04-23 13:08 | 28.57421 | 74.00066 | 39723 ft | 451 kts | 263° |
| 2026-04-23 13:08 | 28.56706 | 73.92954 | 39734 ft | 456 kts | 263° |
| 2026-04-23 13:09 | 28.56103 | 73.86982 | 39718 ft | 459 kts | 263° |
| 2026-04-23 13:09 | 28.55291 | 73.78516 | 39721 ft | 464 kts | 265° |
| 2026-04-23 13:10 | 28.54948 | 73.71214 | 39718 ft | 468 kts | 267° |
| 2026-04-23 13:10 | 28.54636 | 73.63797 | 39728 ft | 470 kts | 267° |
| 2026-04-23 13:11 | 28.54323 | 73.56400 | 39723 ft | 473 kts | 267° |
| 2026-04-23 13:11 | 28.54001 | 73.48926 | 39723 ft | 475 kts | 267° |
| 2026-04-23 13:12 | 28.53674 | 73.41449 | 39727 ft | 477 kts | 267° |
| 2026-04-23 13:12 | 28.53341 | 73.33886 | 39734 ft | 478 kts | 266° |
| 2026-04-23 13:13 | 28.53004 | 73.26332 | 39721 ft | 480 kts | 267° |
| 2026-04-23 13:13 | 28.52663 | 73.18796 | 39718 ft | 481 kts | 267° |
| 2026-04-23 13:14 | 28.52315 | 73.11205 | 39715 ft | 482 kts | 267° |
| 2026-04-23 13:14 | 28.51963 | 73.03640 | 39719 ft | 483 kts | 267° |
| 2026-04-23 13:15 | 28.51606 | 72.96023 | 39720 ft | 483 kts | 267° |
| 2026-04-23 13:15 | 28.51302 | 72.89665 | 39711 ft | 484 kts | 267° |
| 2026-04-23 13:16 | 28.50876 | 72.80776 | 39695 ft | 485 kts | 267° |
| 2026-04-23 13:16 | 28.50504 | 72.73141 | 39718 ft | 486 kts | 267° |
| 2026-04-23 13:17 | 28.50127 | 72.65464 | 39697 ft | 486 kts | 267° |
| 2026-04-23 13:17 | 28.49747 | 72.57846 | 39706 ft | 486 kts | 267° |
| 2026-04-23 13:18 | 28.49359 | 72.50155 | 39697 ft | 486 kts | 267° |
| 2026-04-23 13:18 | 28.48971 | 72.42532 | 39704 ft | 487 kts | 267° |
| 2026-04-23 13:19 | 28.48576 | 72.34841 | 39701 ft | 487 kts | 266° |
| 2026-04-23 13:19 | 28.48180 | 72.27219 | 39703 ft | 487 kts | 266° |
| 2026-04-23 13:20 | 28.47784 | 72.19552 | 39704 ft | 487 kts | 266° |
| 2026-04-23 13:20 | 28.47393 | 72.11871 | 39699 ft | 487 kts | 266° |
| 2026-04-23 13:21 | 28.46998 | 72.04216 | 39695 ft | 488 kts | 266° |
| 2026-04-23 13:21 | 28.46599 | 71.96547 | 39692 ft | 488 kts | 266° |
| 2026-04-23 13:22 | 28.46191 | 71.88832 | 39697 ft | 488 kts | 266° |
| 2026-04-23 13:22 | 28.45780 | 71.81152 | 39688 ft | 488 kts | 266° |
| 2026-04-23 13:23 | 28.45367 | 71.73502 | 39697 ft | 488 kts | 266° |
| 2026-04-23 13:23 | 28.44950 | 71.65849 | 39703 ft | 489 kts | 266° |
| 2026-04-23 13:24 | 28.44526 | 71.58127 | 39693 ft | 489 kts | 266° |
| 2026-04-23 13:24 | 28.44097 | 71.50437 | 39689 ft | 489 kts | 266° |
| 2026-04-23 13:25 | 28.43667 | 71.42767 | 39695 ft | 489 kts | 266° |
| 2026-04-23 13:25 | 28.43230 | 71.35097 | 39700 ft | 489 kts | 266° |
| 2026-04-23 13:26 | 28.42791 | 71.27406 | 39693 ft | 490 kts | 266° |
| 2026-04-23 13:26 | 28.42346 | 71.19706 | 39698 ft | 490 kts | 266° |
| 2026-04-23 13:27 | 28.41896 | 71.11988 | 39693 ft | 490 kts | 266° |
| 2026-04-23 13:27 | 28.41443 | 71.04305 | 39695 ft | 491 kts | 266° |
| 2026-04-23 13:28 | 28.40982 | 70.96574 | 39701 ft | 491 kts | 266° |
| 2026-04-23 13:28 | 28.40519 | 70.88889 | 39677 ft | 491 kts | 266° |
| 2026-04-23 13:29 | 28.40051 | 70.81183 | 39676 ft | 491 kts | 266° |
| 2026-04-23 13:29 | 28.39578 | 70.73457 | 39677 ft | 491 kts | 266° |
| 2026-04-23 13:30 | 28.39101 | 70.65763 | 39641 ft | 490 kts | 266° |
| 2026-04-23 13:30 | 28.38622 | 70.58081 | 39692 ft | 490 kts | 266° |
| 2026-04-23 13:31 | 28.38137 | 70.50397 | 39694 ft | 490 kts | 266° |
| 2026-04-23 13:31 | 28.37646 | 70.42703 | 39655 ft | 490 kts | 266° |
| 2026-04-23 13:32 | 28.36930 | 70.35003 | 39682 ft | 490 kts | 261° |
| 2026-04-23 13:32 | 28.35497 | 70.27454 | 39689 ft | 491 kts | 255° |
| 2026-04-23 13:33 | 28.33357 | 70.20159 | 39652 ft | 492 kts | 249° |
| 2026-04-23 13:33 | 28.30546 | 70.13112 | 39686 ft | 493 kts | 245° |
| 2026-04-23 13:34 | 28.27541 | 70.06107 | 39681 ft | 493 kts | 245° |
| 2026-04-23 13:34 | 28.24547 | 69.99144 | 39678 ft | 493 kts | 245° |
| 2026-04-23 13:35 | 28.21543 | 69.92166 | 39685 ft | 494 kts | 245° |
| 2026-04-23 13:35 | 28.18532 | 69.85178 | 39690 ft | 494 kts | 245° |
| 2026-04-23 13:36 | 28.15519 | 69.78200 | 39686 ft | 494 kts | 245° |
| 2026-04-23 13:36 | 28.12521 | 69.71268 | 39682 ft | 494 kts | 245° |
| 2026-04-23 13:37 | 28.09498 | 69.64294 | 39677 ft | 495 kts | 245° |
| 2026-04-23 13:37 | 28.06469 | 69.57316 | 39676 ft | 495 kts | 245° |
| 2026-04-23 13:38 | 28.03437 | 69.50342 | 39677 ft | 494 kts | 245° |
| 2026-04-23 13:38 | 28.00414 | 69.43397 | 39679 ft | 495 kts | 245° |
| 2026-04-23 13:39 | 27.97359 | 69.36395 | 39676 ft | 495 kts | 245° |
| 2026-04-23 13:39 | 27.94325 | 69.29436 | 39672 ft | 495 kts | 245° |
| 2026-04-23 13:40 | 27.91283 | 69.22476 | 39674 ft | 495 kts | 245° |
| 2026-04-23 13:40 | 27.88208 | 69.15529 | 39668 ft | 496 kts | 245° |
| 2026-04-23 13:41 | 27.85114 | 69.08611 | 39658 ft | 496 kts | 245° |
| 2026-04-23 13:41 | 27.82013 | 69.01640 | 39645 ft | 496 kts | 245° |
| 2026-04-23 13:42 | 27.78940 | 68.94720 | 39653 ft | 496 kts | 245° |
| 2026-04-23 13:42 | 27.75853 | 68.87759 | 39652 ft | 496 kts | 246° |
| 2026-04-23 13:43 | 27.73194 | 68.80588 | 39675 ft | 494 kts | 252° |
| 2026-04-23 13:43 | 27.71250 | 68.73227 | 39662 ft | 493 kts | 258° |
| 2026-04-23 13:44 | 27.69915 | 68.65668 | 39663 ft | 492 kts | 261° |
| 2026-04-23 13:44 | 27.68684 | 68.58110 | 39652 ft | 492 kts | 261° |
| 2026-04-23 13:45 | 27.67654 | 68.51808 | 39663 ft | 492 kts | 261° |
| 2026-04-23 13:45 | 27.66204 | 68.42988 | 39660 ft | 492 kts | 261° |
| 2026-04-23 13:46 | 27.64954 | 68.35419 | 39640 ft | 492 kts | 261° |
| 2026-04-23 13:46 | 27.63700 | 68.27827 | 39643 ft | 492 kts | 261° |
| 2026-04-23 13:47 | 27.62451 | 68.20302 | 39630 ft | 492 kts | 261° |
| 2026-04-23 13:47 | 27.61190 | 68.12743 | 39621 ft | 492 kts | 261° |
| 2026-04-23 13:48 | 27.59926 | 68.05195 | 39578 ft | 492 kts | 261° |
| 2026-04-23 13:48 | 27.58658 | 67.97649 | 39643 ft | 492 kts | 261° |
| 2026-04-23 13:49 | 27.57382 | 67.90083 | 39675 ft | 492 kts | 261° |
| 2026-04-23 13:49 | 27.56103 | 67.82522 | 39633 ft | 492 kts | 261° |
| 2026-04-23 13:50 | 27.54828 | 67.75015 | 39629 ft | 492 kts | 261° |
| 2026-04-23 13:50 | 27.53539 | 67.67452 | 39707 ft | 491 kts | 261° |
| 2026-04-23 13:51 | 27.52251 | 67.59922 | 39704 ft | 491 kts | 261° |
| 2026-04-23 13:51 | 27.50966 | 67.52415 | 39707 ft | 491 kts | 261° |
| 2026-04-23 13:52 | 27.49663 | 67.44858 | 39747 ft | 490 kts | 261° |
| 2026-04-23 13:52 | 27.48374 | 67.37384 | 39824 ft | 490 kts | 261° |
| 2026-04-23 13:53 | 27.47071 | 67.29855 | 39878 ft | 489 kts | 261° |
| 2026-04-23 13:53 | 27.45771 | 67.22356 | 39891 ft | 489 kts | 262° |
| 2026-04-23 13:54 | 27.44610 | 67.14902 | 39970 ft | 487 kts | 263° |
| 2026-04-23 13:54 | 27.43483 | 67.07374 | 40039 ft | 488 kts | 262° |
| 2026-04-23 13:55 | 27.42346 | 66.99887 | 40003 ft | 487 kts | 263° |
| 2026-04-23 13:55 | 27.41195 | 66.92375 | 40070 ft | 488 kts | 262° |
| 2026-04-23 13:56 | 27.40040 | 66.84892 | 40059 ft | 488 kts | 262° |
| 2026-04-23 13:56 | 27.38882 | 66.77400 | 40058 ft | 489 kts | 262° |
| 2026-04-23 13:57 | 27.37706 | 66.69850 | 40032 ft | 489 kts | 263° |
| 2026-04-23 13:57 | 27.36537 | 66.62360 | 40065 ft | 489 kts | 263° |
| 2026-04-23 13:58 | 27.35367 | 66.54884 | 40059 ft | 489 kts | 262° |
| 2026-04-23 13:58 | 27.34183 | 66.47349 | 40109 ft | 488 kts | 263° |
| 2026-04-23 13:59 | 27.32998 | 66.39838 | 40085 ft | 489 kts | 263° |
| 2026-04-23 13:59 | 27.31810 | 66.32336 | 40060 ft | 489 kts | 262° |
| 2026-04-23 14:00 | 27.30820 | 66.26080 | 40077 ft | 490 kts | 262° |
| 2026-04-23 14:00 | 27.29422 | 66.17310 | 40064 ft | 491 kts | 262° |
| 2026-04-23 14:01 | 27.28215 | 66.09772 | 40050 ft | 491 kts | 262° |
| 2026-04-23 14:01 | 27.27005 | 66.02237 | 40080 ft | 492 kts | 262° |
| 2026-04-23 14:02 | 27.25795 | 65.94714 | 40028 ft | 492 kts | 262° |
| 2026-04-23 14:02 | 27.24573 | 65.87165 | 40052 ft | 492 kts | 262° |
| 2026-04-23 14:03 | 27.23356 | 65.79655 | 40060 ft | 492 kts | 262° |
| 2026-04-23 14:03 | 27.22121 | 65.72086 | 40060 ft | 492 kts | 262° |
| 2026-04-23 14:04 | 27.20890 | 65.64558 | 40074 ft | 492 kts | 262° |
| 2026-04-23 14:04 | 27.19654 | 65.57036 | 40068 ft | 491 kts | 262° |
| 2026-04-23 14:05 | 27.18420 | 65.49538 | 40115 ft | 491 kts | 262° |
| 2026-04-23 14:05 | 27.17187 | 65.42047 | 40157 ft | 489 kts | 263° |
| 2026-04-23 14:05 | 27.16581 | 65.38313 | 40296 ft | 487 kts | 262° |
| 2026-04-23 14:06 | 27.15977 | 65.34548 | 40447 ft | 485 kts | 262° |
| 2026-04-23 14:06 | 27.15395 | 65.30867 | 40596 ft | 482 kts | 262° |
| 2026-04-23 14:06 | 27.14825 | 65.27190 | 40803 ft | 478 kts | 263° |
| 2026-04-23 14:06 | 27.14271 | 65.23550 | 41006 ft | 475 kts | 263° |
| 2026-04-23 14:07 | 27.13728 | 65.19921 | 41249 ft | 471 kts | 263° |
| 2026-04-23 14:07 | 27.12683 | 65.12720 | 41769 ft | 463 kts | 263° |
| 2026-04-23 14:07 | 27.12187 | 65.09192 | 42071 ft | 458 kts | 263° |
| 2026-04-23 14:08 | 27.11699 | 65.05658 | 42387 ft | 453 kts | 264° |
| 2026-04-23 14:08 | 27.11237 | 65.02229 | 42733 ft | 447 kts | 263° |
| 2026-04-23 14:08 | 27.10785 | 64.98801 | 43112 ft | 440 kts | 264° |
| 2026-04-23 14:08 | 27.10351 | 64.95437 | 43497 ft | 433 kts | 264° |
| 2026-04-23 14:09 | 27.09941 | 64.92175 | 43899 ft | 424 kts | 264° |
| 2026-04-23 14:09 | 27.09540 | 64.88911 | 44384 ft | 415 kts | 264° |
| 2026-04-23 14:09 | 27.09166 | 64.85786 | 44868 ft | 405 kts | 264° |
| 2026-04-23 14:09 | 27.08806 | 64.82708 | 45393 ft | 395 kts | 264° |
| 2026-04-23 14:10 | 27.08464 | 64.79689 | 45881 ft | 385 kts | 264° |
| 2026-04-23 14:10 | 27.08140 | 64.76759 | 46256 ft | 375 kts | 265° |
| 2026-04-23 14:10 | 27.07932 | 64.74809 | 46493 ft | 370 kts | 265° |
| 2026-04-23 14:10 | 27.07543 | 64.71056 | 46815 ft | 360 kts | 265° |
| 2026-04-23 14:11 | 27.07272 | 64.68319 | 46975 ft | 353 kts | 266° |
| 2026-04-23 14:11 | 27.07013 | 64.65584 | 46858 ft | 352 kts | 266° |
| 2026-04-23 14:11 | 27.06766 | 64.62832 | 46456 ft | 357 kts | 266° |
| 2026-04-23 14:11 | 27.06530 | 64.60060 | 46061 ft | 361 kts | 266° |
| 2026-04-23 14:12 | 27.06304 | 64.57252 | 45746 ft | 364 kts | 267° |
| 2026-04-23 14:12 | 27.06090 | 64.54391 | 45473 ft | 367 kts | 267° |
| 2026-04-23 14:12 | 27.05885 | 64.51512 | 44784 ft | 380 kts | 267° |
| 2026-04-23 14:12 | 27.05668 | 64.48506 | 43915 ft | 398 kts | 267° |
| 2026-04-23 14:13 | 27.05431 | 64.45345 | 43088 ft | 416 kts | 267° |
| 2026-04-23 14:13 | 27.05178 | 64.42059 | 42263 ft | 434 kts | 268° |
| 2026-04-23 14:13 | 27.04903 | 64.38625 | 41452 ft | 451 kts | 267° |
| 2026-04-23 14:13 | 27.04622 | 64.35094 | 40654 ft | 465 kts | 267° |
| 2026-04-23 14:14 | 27.04327 | 64.31446 | 40166 ft | 472 kts | 267° |
| 2026-04-23 14:14 | 27.04022 | 64.27774 | 40031 ft | 475 kts | 266° |
| 2026-04-23 14:14 | 27.03420 | 64.20435 | 40010 ft | 477 kts | 267° |
| 2026-04-23 14:15 | 27.02764 | 64.13063 | 39994 ft | 479 kts | 262° |
| 2026-04-23 14:15 | 27.00642 | 64.05968 | 39975 ft | 486 kts | 246° |
| 2026-04-23 14:16 | 26.98836 | 64.02743 | 40001 ft | 491 kts | 235° |
| 2026-04-23 14:16 | 26.96545 | 63.99875 | 40026 ft | 496 kts | 229° |
| 2026-04-23 14:16 | 26.91560 | 63.94522 | 40001 ft | 499 kts | 227° |
| 2026-04-23 14:17 | 26.86464 | 63.89232 | 39995 ft | 500 kts | 227° |
| 2026-04-23 14:17 | 26.81309 | 63.84007 | 39992 ft | 502 kts | 225° |
| 2026-04-23 14:18 | 26.76058 | 63.78938 | 39993 ft | 502 kts | 225° |
| 2026-04-23 14:18 | 26.70727 | 63.73830 | 39993 ft | 503 kts | 225° |
| 2026-04-23 14:19 | 26.65443 | 63.68781 | 39971 ft | 502 kts | 225° |
| 2026-04-23 14:19 | 26.60121 | 63.63691 | 39987 ft | 502 kts | 225° |
| 2026-04-23 14:20 | 26.54833 | 63.58623 | 39970 ft | 502 kts | 225° |
| 2026-04-23 14:20 | 26.49546 | 63.53586 | 40002 ft | 502 kts | 225° |
| 2026-04-23 14:21 | 26.44253 | 63.48518 | 39927 ft | 502 kts | 225° |
| 2026-04-23 14:21 | 26.39283 | 63.43142 | 39960 ft | 498 kts | 231° |
| 2026-04-23 14:22 | 26.34625 | 63.37383 | 39897 ft | 497 kts | 233° |
| 2026-04-23 14:22 | 26.30075 | 63.31656 | 39945 ft | 498 kts | 232° |
| 2026-04-23 14:23 | 26.25494 | 63.25900 | 39921 ft | 498 kts | 232° |
| 2026-04-23 14:23 | 26.20870 | 63.20099 | 39930 ft | 497 kts | 232° |
| 2026-04-23 14:24 | 26.18607 | 63.17237 | 40106 ft | 495 kts | 232° |
| 2026-04-23 14:24 | 26.16335 | 63.14349 | 40221 ft | 493 kts | 232° |
| 2026-04-23 14:24 | 26.14098 | 63.11490 | 40339 ft | 491 kts | 233° |
| 2026-04-23 14:24 | 26.11893 | 63.08657 | 40530 ft | 488 kts | 232° |
| 2026-04-23 14:25 | 26.09665 | 63.05779 | 40676 ft | 486 kts | 233° |
| 2026-04-23 14:25 | 26.07479 | 63.02939 | 40835 ft | 483 kts | 233° |
| 2026-04-23 14:25 | 26.06029 | 63.01046 | 40973 ft | 481 kts | 233° |
| 2026-04-23 14:25 | 26.03162 | 62.97285 | 41237 ft | 477 kts | 233° |
| 2026-04-23 14:26 | 26.01048 | 62.94491 | 41444 ft | 473 kts | 233° |
| 2026-04-23 14:26 | 25.98954 | 62.91707 | 41617 ft | 470 kts | 233° |
| 2026-04-23 14:26 | 25.96883 | 62.88938 | 41920 ft | 465 kts | 234° |
| 2026-04-23 14:26 | 25.94834 | 62.86185 | 42141 ft | 461 kts | 234° |
| 2026-04-23 14:27 | 25.92796 | 62.83428 | 42409 ft | 456 kts | 234° |
| 2026-04-23 14:27 | 25.90821 | 62.80743 | 42726 ft | 450 kts | 234° |
| 2026-04-23 14:27 | 25.89526 | 62.78972 | 42955 ft | 445 kts | 234° |
| 2026-04-23 14:27 | 25.86924 | 62.75441 | 43453 ft | 436 kts | 234° |
| 2026-04-23 14:28 | 25.85015 | 62.72890 | 43807 ft | 428 kts | 234° |
| 2026-04-23 14:28 | 25.83132 | 62.70407 | 44167 ft | 420 kts | 234° |
| 2026-04-23 14:28 | 25.81244 | 62.67950 | 44533 ft | 412 kts | 233° |
| 2026-04-23 14:28 | 25.79410 | 62.65596 | 44906 ft | 403 kts | 233° |
| 2026-04-23 14:29 | 25.77570 | 62.63266 | 45308 ft | 395 kts | 232° |
| 2026-04-23 14:29 | 25.75772 | 62.61021 | 45633 ft | 387 kts | 232° |
| 2026-04-23 14:29 | 25.73995 | 62.58833 | 45881 ft | 380 kts | 232° |
| 2026-04-23 14:29 | 25.72232 | 62.56692 | 46076 ft | 373 kts | 231° |
| 2026-04-23 14:30 | 25.70488 | 62.54603 | 46231 ft | 367 kts | 231° |
| 2026-04-23 14:30 | 25.68752 | 62.52554 | 46305 ft | 363 kts | 231° |
| 2026-04-23 14:30 | 25.67017 | 62.50528 | 46074 ft | 364 kts | 230° |
| 2026-04-23 14:30 | 25.65246 | 62.48485 | 45683 ft | 369 kts | 230° |
| 2026-04-23 14:31 | 25.63431 | 62.46410 | 45330 ft | 373 kts | 230° |
| 2026-04-23 14:31 | 25.61614 | 62.44355 | 45069 ft | 376 kts | 230° |
| 2026-04-23 14:31 | 25.59779 | 62.42300 | 44831 ft | 378 kts | 229° |
| 2026-04-23 14:31 | 25.57900 | 62.40222 | 44668 ft | 380 kts | 229° |
| 2026-04-23 14:32 | 25.56033 | 62.38177 | 44540 ft | 381 kts | 229° |
| 2026-04-23 14:32 | 25.54127 | 62.36113 | 44454 ft | 382 kts | 229° |
| 2026-04-23 14:32 | 25.50330 | 62.32045 | 44352 ft | 382 kts | 228° |
| 2026-04-23 14:33 | 25.46514 | 62.27932 | 44310 ft | 381 kts | 229° |
| 2026-04-23 14:33 | 25.42759 | 62.23853 | 44315 ft | 379 kts | 229° |
| 2026-04-23 14:34 | 25.39041 | 62.19785 | 44346 ft | 376 kts | 229° |
| 2026-04-23 14:34 | 25.35359 | 62.15725 | 44361 ft | 373 kts | 229° |
| 2026-04-23 14:35 | 25.31724 | 62.11682 | 44399 ft | 369 kts | 229° |
| 2026-04-23 14:35 | 25.28124 | 62.07649 | 44424 ft | 366 kts | 230° |
| 2026-04-23 14:36 | 25.24591 | 62.03657 | 44449 ft | 362 kts | 230° |
| 2026-04-23 14:36 | 25.21103 | 61.99681 | 44491 ft | 358 kts | 230° |
| 2026-04-23 14:37 | 25.17663 | 61.95726 | 44362 ft | 358 kts | 231° |
| 2026-04-23 14:37 | 25.15940 | 61.93726 | 44246 ft | 360 kts | 231° |
| 2026-04-23 14:37 | 25.14235 | 61.91734 | 44146 ft | 361 kts | 231° |
| 2026-04-23 14:38 | 25.10791 | 61.87681 | 44040 ft | 361 kts | 231° |
| 2026-04-23 14:38 | 25.07412 | 61.83656 | 43989 ft | 359 kts | 233° |
| 2026-04-23 14:39 | 25.05854 | 61.81474 | 43823 ft | 360 kts | 241° |
| 2026-04-23 14:39 | 25.04773 | 61.78989 | 43195 ft | 366 kts | 260° |
| 2026-04-23 14:39 | 25.04569 | 61.76189 | 42682 ft | 373 kts | 279° |
| 2026-04-23 14:39 | 25.05276 | 61.73455 | 42162 ft | 384 kts | 297° |
| 2026-04-23 14:40 | 25.06852 | 61.71022 | 41656 ft | 397 kts | 311° |
| 2026-04-23 14:40 | 25.08733 | 61.68718 | 41157 ft | 409 kts | 308° |
| 2026-04-23 14:40 | 25.10570 | 61.66253 | 40659 ft | 422 kts | 307° |
| 2026-04-23 14:40 | 25.12280 | 61.63621 | 40148 ft | 433 kts | 298° |
| 2026-04-23 14:41 | 25.13488 | 61.60554 | 39781 ft | 441 kts | 286° |
| 2026-04-23 14:41 | 25.14050 | 61.57222 | 39766 ft | 444 kts | 275° |
| 2026-04-23 14:41 | 25.13951 | 61.53819 | 39770 ft | 449 kts | 264° |
| 2026-04-23 14:41 | 25.13198 | 61.50485 | 39761 ft | 456 kts | 252° |
| 2026-04-23 14:42 | 25.10122 | 61.44248 | 39760 ft | 466 kts | 242° |
| 2026-04-23 14:42 | 25.06568 | 61.38257 | 39759 ft | 470 kts | 241° |
| 2026-04-23 14:43 | 25.02969 | 61.32261 | 39749 ft | 473 kts | 240° |
| 2026-04-23 14:43 | 24.98742 | 61.26665 | 39759 ft | 483 kts | 228° |
| 2026-04-23 14:44 | 24.93764 | 61.21584 | 39735 ft | 487 kts | 227° |
| 2026-04-23 14:44 | 24.88730 | 61.16571 | 39766 ft | 489 kts | 226° |
| 2026-04-23 14:45 | 24.83666 | 61.11581 | 39813 ft | 491 kts | 226° |
| 2026-04-23 14:45 | 24.78546 | 61.06570 | 39769 ft | 493 kts | 226° |
| 2026-04-23 14:46 | 24.74136 | 61.00996 | 39755 ft | 480 kts | 245° |
| 2026-04-23 14:46 | 24.71484 | 60.94320 | 39765 ft | 476 kts | 252° |
| 2026-04-23 14:47 | 24.68341 | 60.87898 | 39714 ft | 486 kts | 235° |
| 2026-04-23 14:47 | 24.65953 | 60.85215 | 39742 ft | 495 kts | 224° |
| 2026-04-23 14:47 | 24.63096 | 60.83075 | 39707 ft | 503 kts | 213° |
| 2026-04-23 14:48 | 24.59856 | 60.81556 | 39732 ft | 513 kts | 202° |
| 2026-04-23 14:48 | 24.56349 | 60.80721 | 39741 ft | 521 kts | 191° |
| 2026-04-23 14:48 | 24.52692 | 60.80613 | 39741 ft | 529 kts | 180° |
| 2026-04-23 14:48 | 24.49014 | 60.81256 | 39750 ft | 537 kts | 168° |
| 2026-04-23 14:49 | 24.42186 | 60.84701 | 39752 ft | 548 kts | 146° |
| 2026-04-23 14:49 | 24.39278 | 60.87383 | 39760 ft | 551 kts | 135° |
| 2026-04-23 14:49 | 24.36830 | 60.90607 | 39760 ft | 553 kts | 124° |
| 2026-04-23 14:50 | 24.34939 | 60.94249 | 39758 ft | 553 kts | 113° |
| 2026-04-23 14:50 | 24.33659 | 60.98219 | 39754 ft | 552 kts | 101° |
| 2026-04-23 14:50 | 24.33115 | 61.06479 | 39766 ft | 544 kts | 80° |
| 2026-04-23 14:51 | 24.34689 | 61.14525 | 39772 ft | 540 kts | 70° |
| 2026-04-23 14:51 | 24.37089 | 61.22326 | 39776 ft | 538 kts | 65° |
| 2026-04-23 14:52 | 24.40093 | 61.29803 | 39770 ft | 536 kts | 59° |
| 2026-04-23 14:52 | 24.43724 | 61.36917 | 39809 ft | 534 kts | 53° |
| 2026-04-23 14:53 | 24.47959 | 61.43501 | 39745 ft | 530 kts | 47° |
| 2026-04-23 14:53 | 24.52855 | 61.49514 | 39753 ft | 526 kts | 39° |
| 2026-04-23 14:54 | 24.58359 | 61.54734 | 39757 ft | 520 kts | 32° |
| 2026-04-23 14:54 | 24.64427 | 61.58980 | 39731 ft | 514 kts | 22° |
| 2026-04-23 14:55 | 24.70895 | 61.61997 | 39802 ft | 498 kts | 12° |
| 2026-04-23 14:55 | 24.77556 | 61.63557 | 39748 ft | 486 kts | 0° |
| 2026-04-23 14:56 | 24.84267 | 61.63427 | 39756 ft | 474 kts | 347° |
| 2026-04-23 14:56 | 24.90455 | 61.61353 | 39748 ft | 462 kts | 329° |
| 2026-04-23 14:57 | 24.93159 | 61.59469 | 39727 ft | 456 kts | 317° |
| 2026-04-23 14:57 | 24.95389 | 61.57007 | 39725 ft | 451 kts | 306° |
| 2026-04-23 14:57 | 24.97038 | 61.54104 | 39756 ft | 448 kts | 294° |
| 2026-04-23 14:57 | 24.98043 | 61.50923 | 39740 ft | 447 kts | 282° |
| 2026-04-23 14:58 | 24.98384 | 61.47501 | 39758 ft | 448 kts | 270° |
| 2026-04-23 14:58 | 24.98028 | 61.44114 | 39755 ft | 451 kts | 259° |
| 2026-04-23 14:58 | 24.96977 | 61.40816 | 39741 ft | 456 kts | 247° |
| 2026-04-23 14:58 | 24.95300 | 61.37847 | 39732 ft | 462 kts | 235° |
| 2026-04-23 14:59 | 24.93066 | 61.35305 | 39735 ft | 468 kts | 224° |
| 2026-04-23 14:59 | 24.90559 | 61.33047 | 39718 ft | 467 kts | 226° |
| 2026-04-23 14:59 | 24.86346 | 61.27712 | 39796 ft | 456 kts | 241° |
| 2026-04-23 15:00 | 24.83253 | 61.21720 | 39716 ft | 451 kts | 247° |
| 2026-04-23 15:00 | 24.80576 | 61.15503 | 39692 ft | 450 kts | 249° |
| 2026-04-23 15:01 | 24.79289 | 61.12361 | 39800 ft | 449 kts | 250° |
| 2026-04-23 15:01 | 24.78018 | 61.09232 | 39763 ft | 449 kts | 250° |
| 2026-04-23 15:01 | 24.75491 | 61.02972 | 39787 ft | 447 kts | 250° |
| 2026-04-23 15:02 | 24.72978 | 60.96738 | 39748 ft | 446 kts | 250° |
| 2026-04-23 15:02 | 24.70459 | 60.90522 | 39731 ft | 446 kts | 249° |
| 2026-04-23 15:03 | 24.67813 | 60.84370 | 39735 ft | 446 kts | 249° |
| 2026-04-23 15:03 | 24.65155 | 60.78254 | 39759 ft | 444 kts | 249° |
| 2026-04-23 15:04 | 24.62527 | 60.72175 | 39766 ft | 443 kts | 249° |
| 2026-04-23 15:04 | 24.59891 | 60.66072 | 39768 ft | 442 kts | 249° |
| 2026-04-23 15:05 | 24.57250 | 60.59980 | 39772 ft | 441 kts | 249° |
| 2026-04-23 15:05 | 24.54619 | 60.53925 | 39766 ft | 441 kts | 249° |
| 2026-04-23 15:06 | 24.51990 | 60.47876 | 39770 ft | 440 kts | 249° |
| 2026-04-23 15:06 | 24.49355 | 60.41819 | 39774 ft | 439 kts | 249° |
| 2026-04-23 15:07 | 24.46722 | 60.35784 | 39773 ft | 439 kts | 250° |
| 2026-04-23 15:07 | 24.44112 | 60.29777 | 39765 ft | 439 kts | 249° |
| 2026-04-23 15:08 | 24.41476 | 60.23727 | 39767 ft | 439 kts | 249° |
| 2026-04-23 15:09 | 24.37540 | 60.14730 | 39771 ft | 439 kts | 249° |
| 2026-04-23 15:09 | 24.34893 | 60.08692 | 39767 ft | 439 kts | 250° |
| 2026-04-23 15:10 | 24.32701 | 60.03689 | 39790 ft | 439 kts | 249° |
| 2026-04-23 15:10 | 24.30063 | 59.97678 | 39743 ft | 439 kts | 250° |
| 2026-04-23 15:11 | 24.26970 | 59.90649 | 39763 ft | 438 kts | 250° |
| 2026-04-23 15:11 | 24.24333 | 59.84661 | 39737 ft | 438 kts | 250° |
| 2026-04-23 15:12 | 24.21679 | 59.78641 | 39754 ft | 437 kts | 249° |
| 2026-04-23 15:12 | 24.19043 | 59.72674 | 39771 ft | 437 kts | 250° |
| 2026-04-23 15:13 | 24.16401 | 59.66702 | 39846 ft | 435 kts | 249° |
| 2026-04-23 15:13 | 24.13794 | 59.60816 | 39950 ft | 432 kts | 250° |
| 2026-04-23 15:14 | 24.11147 | 59.54842 | 39959 ft | 439 kts | 250° |
| 2026-04-23 15:14 | 24.08470 | 59.48810 | 39948 ft | 446 kts | 249° |
| 2026-04-23 15:15 | 24.05735 | 59.42659 | 39951 ft | 452 kts | 249° |
| 2026-04-23 15:15 | 24.02967 | 59.36454 | 39944 ft | 458 kts | 249° |
| 2026-04-23 15:16 | 24.00183 | 59.30196 | 39955 ft | 462 kts | 249° |
| 2026-04-23 15:16 | 23.97417 | 59.23832 | 39935 ft | 463 kts | 253° |
| 2026-04-23 15:17 | 23.95680 | 59.17119 | 39954 ft | 458 kts | 264° |
| 2026-04-23 15:17 | 23.95304 | 59.10265 | 39949 ft | 451 kts | 275° |
| 2026-04-23 15:18 | 23.96224 | 59.03618 | 39962 ft | 438 kts | 286° |
| 2026-04-23 15:18 | 23.98085 | 58.97350 | 39955 ft | 432 kts | 290° |
| 2026-04-23 15:19 | 24.00047 | 58.91185 | 39969 ft | 426 kts | 290° |
| 2026-04-23 15:19 | 24.01979 | 58.85136 | 39970 ft | 420 kts | 290° |
| 2026-04-23 15:20 | 24.03574 | 58.80139 | 39976 ft | 416 kts | 290° |
| 2026-04-23 15:20 | 24.05775 | 58.73238 | 39961 ft | 408 kts | 290° |
| 2026-04-23 15:21 | 24.07615 | 58.67444 | 39978 ft | 403 kts | 290° |
| 2026-04-23 15:21 | 24.09438 | 58.61697 | 39951 ft | 398 kts | 290° |
| 2026-04-23 15:22 | 24.11239 | 58.56043 | 39974 ft | 393 kts | 290° |
| 2026-04-23 15:22 | 24.13024 | 58.50449 | 39960 ft | 387 kts | 290° |
| 2026-04-23 15:23 | 24.14796 | 58.44875 | 39962 ft | 390 kts | 290° |
| 2026-04-23 15:23 | 24.16283 | 58.40186 | 39961 ft | 398 kts | 290° |
| 2026-04-23 15:24 | 24.18421 | 58.33421 | 39948 ft | 406 kts | 289° |
| 2026-04-23 15:24 | 24.20269 | 58.27531 | 39962 ft | 414 kts | 289° |
| 2026-04-23 15:25 | 24.22144 | 58.21556 | 39978 ft | 421 kts | 290° |
| 2026-04-23 15:25 | 24.23746 | 58.16452 | 39959 ft | 427 kts | 290° |
| 2026-04-23 15:26 | 24.26012 | 58.09234 | 39965 ft | 433 kts | 289° |
| 2026-04-23 15:26 | 24.27635 | 58.04046 | 39969 ft | 436 kts | 289° |
| 2026-04-23 15:27 | 24.29936 | 57.96690 | 39975 ft | 440 kts | 289° |
| 2026-04-23 15:27 | 24.31927 | 57.90314 | 39951 ft | 443 kts | 289° |
| 2026-04-23 15:28 | 24.33914 | 57.83937 | 39963 ft | 445 kts | 289° |
| 2026-04-23 15:28 | 24.34920 | 57.80703 | 39631 ft | 452 kts | 289° |
| 2026-04-23 15:28 | 24.35919 | 57.77481 | 39602 ft | 449 kts | 289° |
| 2026-04-23 15:28 | 24.36927 | 57.74234 | 39278 ft | 444 kts | 289° |
| 2026-04-23 15:29 | 24.37903 | 57.71079 | 38897 ft | 436 kts | 289° |
| 2026-04-23 15:29 | 24.38873 | 57.67946 | 38608 ft | 431 kts | 289° |
| 2026-04-23 15:29 | 24.39826 | 57.64867 | 38333 ft | 428 kts | 290° |
| 2026-04-23 15:29 | 24.40784 | 57.61769 | 38054 ft | 426 kts | 289° |
| 2026-04-23 15:30 | 24.41726 | 57.58716 | 37842 ft | 423 kts | 289° |
| 2026-04-23 15:30 | 24.42659 | 57.55688 | 37599 ft | 423 kts | 289° |
| 2026-04-23 15:30 | 24.43595 | 57.52657 | 37348 ft | 422 kts | 290° |
| 2026-04-23 15:30 | 24.44540 | 57.49604 | 37115 ft | 420 kts | 289° |
| 2026-04-23 15:31 | 24.45484 | 57.46566 | 36872 ft | 431 kts | 290° |
| 2026-04-23 15:31 | 24.46468 | 57.43399 | 36607 ft | 440 kts | 289° |
| 2026-04-23 15:31 | 24.47460 | 57.40188 | 36345 ft | 445 kts | 289° |
| 2026-04-23 15:31 | 24.48439 | 57.37012 | 36097 ft | 446 kts | 289° |
| 2026-04-23 15:32 | 24.49432 | 57.33786 | 35860 ft | 444 kts | 289° |
| 2026-04-23 15:32 | 24.50413 | 57.30581 | 35616 ft | 444 kts | 289° |
| 2026-04-23 15:32 | 24.51388 | 57.27388 | 35380 ft | 443 kts | 289° |
| 2026-04-23 15:32 | 24.52363 | 57.24194 | 35119 ft | 441 kts | 289° |
| 2026-04-23 15:33 | 24.53338 | 57.21006 | 34889 ft | 440 kts | 289° |
| 2026-04-23 15:33 | 24.54319 | 57.17796 | 34600 ft | 450 kts | 289° |
| 2026-04-23 15:33 | 24.55320 | 57.14521 | 33955 ft | 451 kts | 289° |
| 2026-04-23 15:33 | 24.56308 | 57.11287 | 33587 ft | 452 kts | 289° |
| 2026-04-23 15:34 | 24.57297 | 57.08045 | 33209 ft | 452 kts | 289° |
| 2026-04-23 15:34 | 24.58291 | 57.04783 | 32809 ft | 449 kts | 289° |
| 2026-04-23 15:34 | 24.59282 | 57.01520 | 32405 ft | 447 kts | 289° |
| 2026-04-23 15:34 | 24.60257 | 56.98313 | 32010 ft | 444 kts | 289° |
| 2026-04-23 15:35 | 24.61238 | 56.95086 | 31608 ft | 442 kts | 289° |
| 2026-04-23 15:35 | 24.62195 | 56.91931 | 31217 ft | 440 kts | 289° |
| 2026-04-23 15:35 | 24.63163 | 56.88742 | 30817 ft | 438 kts | 290° |
| 2026-04-23 15:35 | 24.64252 | 56.85650 | 30425 ft | 438 kts | 294° |
| 2026-04-23 15:36 | 24.65596 | 56.82577 | 30010 ft | 456 kts | 298° |
| 2026-04-23 15:36 | 24.67207 | 56.79494 | 29598 ft | 468 kts | 301° |
| 2026-04-23 15:36 | 24.68884 | 56.76434 | 29200 ft | 471 kts | 301° |
| 2026-04-23 15:36 | 24.70274 | 56.73917 | 28887 ft | 470 kts | 301° |
| 2026-04-23 15:37 | 24.71946 | 56.70894 | 28515 ft | 468 kts | 301° |
| 2026-04-23 15:37 | 24.73637 | 56.67837 | 28136 ft | 466 kts | 301° |
| 2026-04-23 15:37 | 24.75301 | 56.64820 | 27760 ft | 463 kts | 301° |
| 2026-04-23 15:37 | 24.76970 | 56.61790 | 27381 ft | 461 kts | 301° |
| 2026-04-23 15:38 | 24.78624 | 56.58783 | 27011 ft | 459 kts | 301° |
| 2026-04-23 15:38 | 24.80277 | 56.55772 | 26629 ft | 458 kts | 300° |
| 2026-04-23 15:38 | 24.81915 | 56.52786 | 26244 ft | 456 kts | 300° |
| 2026-04-23 15:38 | 24.83549 | 56.49804 | 25869 ft | 454 kts | 300° |
| 2026-04-23 15:39 | 24.85154 | 56.46876 | 25497 ft | 451 kts | 300° |
| 2026-04-23 15:39 | 24.86778 | 56.43910 | 25123 ft | 449 kts | 299° |
| 2026-04-23 15:39 | 24.88022 | 56.40791 | 24707 ft | 445 kts | 285° |
| 2026-04-23 15:39 | 24.88421 | 56.37460 | 24335 ft | 444 kts | 270° |
| 2026-04-23 15:40 | 24.88260 | 56.34051 | 23962 ft | 443 kts | 267° |
| 2026-04-23 15:40 | 24.88072 | 56.30683 | 23571 ft | 440 kts | 267° |
| 2026-04-23 15:40 | 24.87974 | 56.27349 | 23176 ft | 437 kts | 274° |
| 2026-04-23 15:40 | 24.88624 | 56.24111 | 22787 ft | 436 kts | 290° |
| 2026-04-23 15:41 | 24.89984 | 56.21174 | 22428 ft | 435 kts | 297° |
| 2026-04-23 15:41 | 24.91491 | 56.18254 | 22103 ft | 433 kts | 297° |
| 2026-04-23 15:41 | 24.92962 | 56.15403 | 22086 ft | 433 kts | 297° |
| 2026-04-23 15:41 | 24.94445 | 56.12521 | 22060 ft | 433 kts | 297° |
| 2026-04-23 15:42 | 24.95937 | 56.09615 | 22080 ft | 432 kts | 297° |
| 2026-04-23 15:42 | 24.97488 | 56.06815 | 22078 ft | 434 kts | 304° |
| 2026-04-23 15:42 | 24.99430 | 56.04265 | 22090 ft | 436 kts | 309° |
| 2026-04-23 15:42 | 25.01481 | 56.01761 | 22058 ft | 436 kts | 310° |
| 2026-04-23 15:43 | 25.03506 | 55.99309 | 22058 ft | 436 kts | 310° |
| 2026-04-23 15:43 | 25.05539 | 55.96841 | 22073 ft | 436 kts | 310° |
| 2026-04-23 15:43 | 25.07577 | 55.94352 | 22072 ft | 436 kts | 309° |
| 2026-04-23 15:43 | 25.09600 | 55.91877 | 22084 ft | 437 kts | 309° |
| 2026-04-23 15:44 | 25.11637 | 55.89385 | 22064 ft | 436 kts | 309° |
| 2026-04-23 15:44 | 25.13680 | 55.86890 | 22070 ft | 436 kts | 309° |
| 2026-04-23 15:44 | 25.15660 | 55.84356 | 21991 ft | 434 kts | 304° |
| 2026-04-23 15:44 | 25.17302 | 55.81626 | 21750 ft | 431 kts | 300° |
| 2026-04-23 15:45 | 25.18866 | 55.78812 | 21506 ft | 429 kts | 299° |
| 2026-04-23 15:45 | 25.20401 | 55.76016 | 21107 ft | 428 kts | 299° |
| 2026-04-23 15:45 | 25.21990 | 55.73231 | 20604 ft | 424 kts | 304° |
| 2026-04-23 15:45 | 25.23987 | 55.70854 | 20113 ft | 424 kts | 317° |
| 2026-04-23 15:46 | 25.26437 | 55.69063 | 19627 ft | 425 kts | 330° |
| 2026-04-23 15:46 | 25.29192 | 55.67954 | 19020 ft | 427 kts | 343° |
| 2026-04-23 15:46 | 25.32184 | 55.67603 | 18403 ft | 430 kts | 357° |
| 2026-04-23 15:46 | 25.35158 | 55.67793 | 17799 ft | 428 kts | 1° |
| 2026-04-23 15:47 | 25.38118 | 55.68102 | 17186 ft | 425 kts | 2° |
| 2026-04-23 15:47 | 25.41048 | 55.68434 | 16573 ft | 421 kts | 2° |
| 2026-04-23 15:47 | 25.43935 | 55.68771 | 15982 ft | 418 kts | 1° |
| 2026-04-23 15:47 | 25.46814 | 55.68756 | 15343 ft | 409 kts | 348° |
| 2026-04-23 15:48 | 25.49535 | 55.67906 | 14724 ft | 400 kts | 332° |
| 2026-04-23 15:48 | 25.51831 | 55.66314 | 14119 ft | 391 kts | 316° |
| 2026-04-23 15:48 | 25.53598 | 55.64051 | 13500 ft | 383 kts | 298° |
| 2026-04-23 15:48 | 25.54617 | 55.61374 | 12901 ft | 376 kts | 281° |
| 2026-04-23 15:49 | 25.54810 | 55.58562 | 12293 ft | 370 kts | 263° |
| 2026-04-23 15:49 | 25.54157 | 55.55817 | 11707 ft | 366 kts | 244° |
| 2026-04-23 15:49 | 25.52753 | 55.53531 | 11086 ft | 363 kts | 227° |
| 2026-04-23 15:49 | 25.50959 | 55.51600 | 10492 ft | 361 kts | 223° |
| 2026-04-23 15:50 | 25.49082 | 55.49739 | 10130 ft | 352 kts | 222° |
| 2026-04-23 15:50 | 25.47300 | 55.48002 | 10040 ft | 336 kts | 222° |
| 2026-04-23 15:50 | 25.45572 | 55.46321 | 10029 ft | 319 kts | 222° |
| 2026-04-23 15:50 | 25.43947 | 55.44732 | 10029 ft | 311 kts | 220° |
| 2026-04-23 15:51 | 25.42122 | 55.43472 | 9940 ft | 313 kts | 201° |
| 2026-04-23 15:51 | 25.39966 | 55.43077 | 9674 ft | 313 kts | 184° |
| 2026-04-23 15:51 | 25.37775 | 55.43135 | 9407 ft | 314 kts | 180° |
| 2026-04-23 15:51 | 25.35595 | 55.43274 | 9147 ft | 313 kts | 179° |
| 2026-04-23 15:52 | 25.33451 | 55.43745 | 8866 ft | 317 kts | 159° |
| 2026-04-23 15:52 | 25.31640 | 55.45106 | 8619 ft | 321 kts | 139° |
| 2026-04-23 15:52 | 25.30109 | 55.46953 | 8360 ft | 322 kts | 133° |
| 2026-04-23 15:52 | 25.28696 | 55.48844 | 8092 ft | 321 kts | 132° |
| 2026-04-23 15:53 | 25.27279 | 55.50737 | 7750 ft | 318 kts | 132° |
| 2026-04-23 15:53 | 25.25856 | 55.52623 | 7188 ft | 323 kts | 131° |
| 2026-04-23 15:53 | 25.24385 | 55.54548 | 6475 ft | 332 kts | 131° |
| 2026-04-23 15:53 | 25.22920 | 55.56544 | 5746 ft | 339 kts | 126° |
| 2026-04-23 15:54 | 25.21643 | 55.58648 | 5029 ft | 327 kts | 123° |
| 2026-04-23 15:54 | 25.20432 | 55.60724 | 4436 ft | 314 kts | 123° |
| 2026-04-23 15:54 | 25.19242 | 55.62645 | 4070 ft | 297 kts | 132° |
| 2026-04-23 15:54 | 25.17628 | 55.63969 | 3725 ft | 281 kts | 159° |
| 2026-04-23 15:55 | 25.15782 | 55.64338 | 3394 ft | 268 kts | 186° |
| 2026-04-23 15:55 | 25.14043 | 55.63786 | 3081 ft | 255 kts | 207° |
| 2026-04-23 15:55 | 25.12502 | 55.62883 | 2752 ft | 246 kts | 211° |
| 2026-04-23 15:55 | 25.11025 | 55.61937 | 2421 ft | 240 kts | 212° |
| 2026-04-23 15:56 | 25.09699 | 55.60905 | 2085 ft | 231 kts | 234° |
| 2026-04-23 15:56 | 25.09115 | 55.59432 | 2034 ft | 196 kts | 270° |
| 2026-04-23 15:56 | 25.09448 | 55.58129 | 2020 ft | 164 kts | 311° |
| 2026-04-23 15:56 | 25.10257 | 55.57275 | 2031 ft | 161 kts | 322° |
| 2026-04-23 15:57 | 25.11147 | 55.56490 | 2032 ft | 161 kts | 323° |
| 2026-04-23 15:57 | 25.12023 | 55.55740 | 2028 ft | 160 kts | 323° |
| 2026-04-23 15:57 | 25.12912 | 55.54984 | 2027 ft | 160 kts | 323° |
| 2026-04-23 15:57 | 25.13807 | 55.54223 | 2026 ft | 160 kts | 323° |
| 2026-04-23 15:58 | 25.14683 | 55.53478 | 2026 ft | 160 kts | 323° |
| 2026-04-23 15:58 | 25.15578 | 55.52715 | 2026 ft | 160 kts | 323° |
| 2026-04-23 15:58 | 25.16402 | 55.51897 | 2028 ft | 161 kts | 316° |
| 2026-04-23 15:58 | 25.17131 | 55.50945 | 2030 ft | 162 kts | 310° |
| 2026-04-23 15:59 | 25.17796 | 55.49922 | 2029 ft | 163 kts | 307° |
| 2026-04-23 15:59 | 25.18419 | 55.48871 | 1904 ft | 164 kts | 305° |
| 2026-04-23 15:59 | 25.19019 | 55.47795 | 1707 ft | 163 kts | 304° |
| 2026-04-23 15:59 | 25.19601 | 55.46732 | 1497 ft | 162 kts | 303° |
| 2026-04-23 16:00 | 25.20185 | 55.45663 | 1291 ft | 161 kts | 303° |
| 2026-04-23 16:00 | 25.20760 | 55.44619 | 1093 ft | 158 kts | 303° |
| 2026-04-23 16:00 | 25.21316 | 55.43607 | 887 ft | 148 kts | 304° |
| 2026-04-23 16:00 | 25.21849 | 55.42643 | 705 ft | 147 kts | 304° |
| 2026-04-23 16:01 | 25.22372 | 55.41676 | 512 ft | 146 kts | 302° |
| 2026-04-23 16:01 | 25.22890 | 55.40709 | 277 ft | 149 kts | 303° |
| 2026-04-23 16:01 | 25.23388 | 55.39798 | 115 ft | 131 kts | 306° |
| 2026-04-23 16:01 | 25.23795 | 55.39019 | 64 ft | 110 kts | 303° |
| 2026-04-23 16:02 | 25.24127 | 55.38546 | 61 ft | 47 kts | 297° |
| 2026-04-23 16:02 | 25.24199 | 55.38408 | 61 ft | 5 kts | 304° |
| 2026-04-23 16:02 | 25.24215 | 55.38375 | 61 ft | 10 kts | 296° |
| 2026-04-23 16:02 | 25.24261 | 55.38243 | 59 ft | 26 kts | 298° |
| 2026-04-23 16:03 | 25.24381 | 55.38030 | 58 ft | 34 kts | 298° |
| 2026-04-23 16:03 | 25.24517 | 55.37813 | 57 ft | 34 kts | 303° |
| 2026-04-23 16:03 | 25.24600 | 55.37565 | 54 ft | 35 kts | 278° |
| 2026-04-23 16:03 | 25.24622 | 55.37305 | 55 ft | 29 kts | 282° |
| 2026-04-23 16:04 | 25.24649 | 55.37219 | 53 ft | 4 kts | 302° |
| 2026-04-23 16:04 | 25.24657 | 55.37206 | 52 ft | 2 kts | 303° |
| 2026-04-23 16:04 | 25.24675 | 55.37172 | 51 ft | 6 kts | 301° |
| 2026-04-23 16:04 | 25.24694 | 55.37133 | 51 ft | 6 kts | 285° |
| 2026-04-23 16:05 | 25.24709 | 55.37096 | 51 ft | 10 kts | 302° |
| 2026-04-23 16:05 | 25.24770 | 55.36964 | 50 ft | 19 kts | 304° |
| 2026-04-23 16:05 | 25.24837 | 55.36826 | 51 ft | 20 kts | 291° |
| 2026-04-23 16:05 | 25.24901 | 55.36679 | 51 ft | 22 kts | 300° |
| 2026-04-23 16:06 | 25.24966 | 55.36517 | 47 ft | 25 kts | 287° |
| 2026-04-23 16:06 | 25.24986 | 55.36341 | 33 ft | 19 kts | 279° |
| 2026-04-23 16:06 | 25.25042 | 55.36205 | 36 ft | 18 kts | 303° |
| 2026-04-23 16:06 | 25.25075 | 55.36125 | 35 ft | 10 kts | 273° |
| 2026-04-23 16:07 | 25.25061 | 55.36089 | 33 ft | 2 kts | 195° |
| 2026-04-23 16:07 | 25.25050 | 55.36085 | 33 ft | 2 kts | 207° |
| 2026-04-23 16:07 | 25.25032 | 55.36073 | 33 ft | 3 kts | 213° |
| 2026-04-23 16:07 | 25.25018 | 55.36063 | 33 ft | 0 kts | 212° |
| 2026-04-23 16:08 | 25.25013 | 55.36059 | 33 ft | 0 kts | 212° |